createdAt,value
2023-01-12T00:01:59.144Z,97735.47
2023-01-12T00:04:26.843Z,97737.41
2023-01-12T00:06:54.981Z,97726.84
2023-01-12T00:09:22.510Z,97722.13
2023-01-12T00:11:50.019Z,97722.34
2023-01-12T00:14:17.559Z,97720.09
2023-01-12T00:16:45.459Z,97722.72
2023-01-12T00:19:21.710Z,97713.78
2023-01-12T00:21:59.042Z,97700.03
2023-01-12T00:24:28.321Z,97709.66
2023-01-12T00:26:57.430Z,97706.44
2023-01-12T00:29:26.353Z,97704.84
2023-01-12T00:31:55.300Z,97702.84
2023-01-12T00:34:23.019Z,97695.50
2023-01-12T00:36:50.516Z,97680.91
2023-01-12T00:39:18.380Z,97681.09
2023-01-12T00:42:04.762Z,97667.91
2023-01-12T00:44:50.912Z,97675.81
2023-01-12T00:47:19.006Z,97681.31
2023-01-12T00:49:47.161Z,97683.56
2023-01-12T00:52:29.391Z,97683.97
2023-01-12T00:54:58.586Z,97678.66
2023-01-12T00:57:26.217Z,97695.34
2023-01-12T00:59:58.387Z,97692.47
2023-01-12T01:02:27.673Z,97685.75
2023-01-12T01:04:56.335Z,97690.84
2023-01-12T01:07:24.692Z,97687.16
2023-01-12T01:09:52.246Z,97689.16
2023-01-12T01:12:19.924Z,97689.56
2023-01-12T01:14:48.455Z,97691.78
2023-01-12T01:17:15.994Z,97683.22
2023-01-12T01:19:43.861Z,97683.84
2023-01-12T01:22:13.129Z,97667.38
2023-01-12T01:24:41.644Z,97660.50
2023-01-12T01:27:09.090Z,97675.94
2023-01-12T01:29:36.791Z,97679.38
2023-01-12T01:32:04.640Z,97681.84
2023-01-12T01:34:32.443Z,97678.81
2023-01-12T01:36:59.924Z,97685.72
2023-01-12T01:39:27.429Z,97682.69
2023-01-12T01:41:54.976Z,97689.38
2023-01-12T01:44:31.463Z,97691.22
2023-01-12T01:47:02.766Z,97688.59
2023-01-12T01:49:49.579Z,97687.97
2023-01-12T01:52:25.997Z,97691.00
2023-01-12T01:54:58.073Z,97693.00
2023-01-12T01:57:31.949Z,97697.06
2023-01-12T02:00:01.094Z,97691.22
2023-01-12T02:02:28.902Z,97693.00
2023-01-12T02:04:57.593Z,97698.47
2023-01-12T02:07:25.880Z,97699.47
2023-01-12T02:09:53.343Z,97703.97
2023-01-12T02:12:39.546Z,97716.59
2023-01-12T02:15:26.347Z,97721.06
2023-01-12T02:18:10.847Z,97722.44
2023-01-12T02:20:58.378Z,97723.25
2023-01-12T02:23:34.833Z,97734.84
2023-01-12T02:26:24.289Z,97734.84
2023-01-12T02:29:09.949Z,97731.78
2023-01-12T02:31:40.359Z,97733.41
2023-01-12T02:34:24.647Z,97726.09
2023-01-12T02:37:04.347Z,97719.75
2023-01-12T02:39:59.580Z,97714.91
2023-01-12T02:42:49.710Z,97712.47
2023-01-12T02:45:33.932Z,97708.78
2023-01-12T02:48:40.681Z,97704.13
2023-01-12T02:51:37.190Z,97710.38
2023-01-12T02:54:11.100Z,97699.94
2023-01-12T02:56:45.421Z,97699.09
2023-01-12T02:59:21.349Z,97696.06
2023-01-12T03:01:51.406Z,97688.31
2023-01-12T03:04:20.112Z,97683.88
2023-01-12T03:06:57.099Z,97684.50
2023-01-12T03:09:31.095Z,97689.97
2023-01-12T03:12:06.300Z,97677.38
2023-01-12T03:14:37.549Z,97673.13
2023-01-12T03:17:11.357Z,97681.63
2023-01-12T03:19:39.859Z,97691.34
2023-01-12T03:22:13.328Z,97692.59
2023-01-12T03:24:56.809Z,97697.28
2023-01-12T03:27:36.030Z,97707.78
2023-01-12T03:30:11.279Z,97690.75
2023-01-12T03:32:38.980Z,97692.97
2023-01-12T03:35:08.909Z,97683.19
2023-01-12T03:37:50.229Z,97681.34
2023-01-12T03:40:21.529Z,97686.22
2023-01-12T03:42:58.338Z,97683.59
2023-01-12T03:45:31.810Z,97674.69
2023-01-12T03:48:12.177Z,97673.72
2023-01-12T03:50:51.868Z,97666.22
2023-01-12T03:53:22.159Z,97666.88
2023-01-12T03:55:54.049Z,97659.78
2023-01-12T03:58:23.819Z,97656.53
2023-01-12T04:00:51.792Z,97653.66
2023-01-12T04:03:19.289Z,97655.91
2023-01-12T04:05:46.845Z,97650.63
2023-01-12T04:08:16.082Z,97650.63
2023-01-12T04:10:43.771Z,97643.69
2023-01-12T04:13:11.318Z,97648.81
2023-01-12T04:15:42.633Z,97654.69
2023-01-12T04:18:11.880Z,97649.41
2023-01-12T04:20:40.325Z,97642.31
2023-01-12T04:23:07.857Z,97639.50
2023-01-12T04:25:35.989Z,97638.69
2023-01-12T04:28:04.135Z,97634.00
2023-01-12T04:30:33.762Z,97631.56
2023-01-12T04:33:08.119Z,97637.72
2023-01-12T04:35:35.779Z,97631.63
2023-01-12T04:38:07.720Z,97633.22
2023-01-12T04:40:35.341Z,97623.22
2023-01-12T04:43:07.946Z,97626.28
2023-01-12T04:45:39.095Z,97622.66
2023-01-12T04:48:12.656Z,97620.00
2023-01-12T04:50:41.086Z,97622.66
2023-01-12T04:53:11.008Z,97618.56
2023-01-12T04:55:41.389Z,97612.28
2023-01-12T04:58:09.613Z,97611.66
2023-01-12T05:00:37.076Z,97611.69
2023-01-12T05:03:04.580Z,97606.81
2023-01-12T05:05:33.615Z,97591.78
2023-01-12T05:08:21.127Z,97597.72
2023-01-12T05:10:56.145Z,97583.47
2023-01-12T05:13:25.724Z,97582.25
2023-01-12T05:15:53.145Z,97587.69
2023-01-12T05:18:20.777Z,97583.03
2023-01-12T05:20:48.289Z,97580.22
2023-01-12T05:23:15.706Z,97580.41
2023-01-12T05:25:43.392Z,97569.22
2023-01-12T05:28:10.951Z,97566.00
2023-01-12T05:30:38.509Z,97564.75
2023-01-12T05:33:06.090Z,97570.84
2023-01-12T05:35:33.569Z,97570.66
2023-01-12T05:38:01.117Z,97568.41
2023-01-12T05:40:28.645Z,97574.09
2023-01-12T05:43:14.499Z,97565.19
2023-01-12T05:49:54.908Z,97563.97
2023-01-12T05:52:22.427Z,97566.59
2023-01-12T05:54:49.998Z,97560.50
2023-01-12T05:57:17.438Z,97560.06
2023-01-12T05:59:44.909Z,97568.00
2023-01-12T06:02:17.253Z,97573.69
2023-01-12T06:04:44.787Z,97571.03
2023-01-12T06:07:13.804Z,97573.28
2023-01-12T06:09:41.747Z,97567.84
2023-01-12T06:12:31.013Z,97578.97
2023-01-12T06:14:58.514Z,97564.16
2023-01-12T06:17:26.045Z,97561.50
2023-01-12T06:19:53.646Z,97570.25
2023-01-12T06:22:21.134Z,97562.16
2023-01-12T06:24:49.392Z,97565.78
2023-01-12T06:27:16.954Z,97557.69
2023-01-12T06:29:44.473Z,97560.31
2023-01-12T06:32:11.959Z,97551.38
2023-01-12T06:34:39.414Z,97552.63
2023-01-12T06:37:08.363Z,97552.81
2023-01-12T06:39:35.856Z,97547.53
2023-01-12T06:42:24.100Z,97545.50
2023-01-12T06:44:51.636Z,97547.97
2023-01-12T06:47:19.165Z,97552.84
2023-01-12T06:49:46.688Z,97554.06
2023-01-12T06:52:14.298Z,97563.81
2023-01-12T06:54:41.764Z,97569.28
2023-01-12T06:57:09.386Z,97566.03
2023-01-12T06:59:38.938Z,97556.47
2023-01-12T07:02:06.619Z,97553.44
2023-01-12T07:04:34.231Z,97551.38
2023-01-12T07:07:01.789Z,97560.13
2023-01-12T07:09:29.463Z,97560.53
2023-01-12T07:11:56.938Z,97556.88
2023-01-12T07:14:24.744Z,97571.31
2023-01-12T07:16:52.400Z,97569.06
2023-01-12T07:19:19.882Z,97570.91
2023-01-12T07:21:49.486Z,97561.34
2023-01-12T07:24:17.467Z,97566.00
2023-01-12T07:26:47.924Z,97569.69
2023-01-12T07:29:15.899Z,97565.22
2023-01-12T07:31:44.574Z,97571.13
2023-01-12T07:34:12.627Z,97559.56
2023-01-12T07:36:40.123Z,97559.97
2023-01-12T07:39:08.727Z,97563.81
2023-01-12T07:41:54.865Z,97569.09
2023-01-12T07:44:23.458Z,97572.75
2023-01-12T07:46:50.973Z,97562.19
2023-01-12T07:49:18.518Z,97561.56
2023-01-12T07:51:46.224Z,97566.63
2023-01-12T07:54:13.772Z,97572.13
2023-01-12T07:56:44.465Z,97570.94
2023-01-12T07:59:12.076Z,97565.03
2023-01-12T08:01:41.202Z,97563.38
2023-01-12T08:04:08.836Z,97568.47
2023-01-12T08:06:36.450Z,97565.22
2023-01-12T08:09:04.348Z,97568.25
2023-01-12T08:11:31.875Z,97576.00
2023-01-12T08:13:59.674Z,97568.47
2023-01-12T08:16:33.611Z,97561.34
2023-01-12T08:19:07.917Z,97565.63
2023-01-12T08:21:46.061Z,97560.06
2023-01-12T08:24:18.157Z,97550.47
2023-01-12T08:26:48.256Z,97554.13
2023-01-12T08:29:30.098Z,97538.16
2023-01-12T08:32:04.689Z,97542.00
2023-01-12T08:34:34.380Z,97536.47
2023-01-12T08:37:06.256Z,97536.63
2023-01-12T08:39:35.525Z,97541.50
2023-01-12T08:42:04.536Z,97539.41
2023-01-12T08:44:41.174Z,97533.91
2023-01-12T08:47:21.323Z,97531.66
2023-01-12T08:49:48.973Z,97536.66
2023-01-12T08:52:16.842Z,97536.66
2023-01-12T08:54:44.865Z,97535.19
2023-01-12T08:57:12.608Z,97527.84
2023-01-12T08:59:40.449Z,97523.47
2023-01-12T09:02:10.736Z,97518.16
2023-01-12T09:04:40.467Z,97515.66
2023-01-12T09:07:09.296Z,97516.69
2023-01-12T09:09:37.113Z,97506.81
2023-01-12T09:12:05.102Z,97510.69
2023-01-12T09:14:38.923Z,97510.56
2023-01-12T09:17:07.213Z,97509.47
2023-01-12T09:19:34.897Z,97502.69
2023-01-12T09:22:02.430Z,97504.91
2023-01-12T09:24:30.165Z,97502.69
2023-01-12T09:26:57.653Z,97493.31
2023-01-12T09:29:25.179Z,97491.53
2023-01-12T09:31:52.784Z,97502.09
2023-01-12T09:34:20.372Z,97491.47
2023-01-12T09:36:49.008Z,97490.66
2023-01-12T09:39:28.743Z,97477.63
2023-01-12T09:42:16.097Z,97486.41
2023-01-12T09:45:05.966Z,97476.16
2023-01-12T09:47:42.224Z,97460.88
2023-01-12T09:50:13.553Z,97456.00
2023-01-12T09:52:53.608Z,97452.91
2023-01-12T09:55:24.188Z,97443.13
2023-01-12T09:57:58.774Z,97441.78
2023-01-12T10:00:29.412Z,97439.78
2023-01-12T10:03:41.660Z,97429.78
2023-01-12T10:06:15.775Z,97426.97
2023-01-12T10:08:50.504Z,97432.78
2023-01-12T10:11:47.834Z,97438.09
2023-01-12T10:14:23.858Z,97440.91
2023-01-12T10:16:53.996Z,97438.25
2023-01-12T10:19:28.026Z,97435.38
2023-01-12T10:21:56.267Z,97432.00
2023-01-12T10:24:25.554Z,97433.41
2023-01-12T10:27:02.599Z,97427.25
2023-01-12T10:29:32.957Z,97421.75
2023-01-12T10:32:00.545Z,97421.75
2023-01-12T10:34:30.331Z,97411.78
2023-01-12T10:37:05.789Z,97411.56
2023-01-12T10:39:43.472Z,97402.94
2023-01-12T10:42:36.962Z,97403.97
2023-01-12T10:45:15.483Z,97387.44
2023-01-12T10:47:45.039Z,97392.31
2023-01-12T10:50:29.326Z,97387.88
2023-01-12T10:53:07.455Z,97381.66
2023-01-12T10:55:39.811Z,97371.69
2023-01-12T10:58:22.573Z,97373.28
2023-01-12T11:00:52.308Z,97373.72
2023-01-12T11:03:32.022Z,97381.03
2023-01-12T11:06:30.988Z,97367.78
2023-01-12T11:08:59.061Z,97364.69
2023-01-12T11:11:33.534Z,97351.19
2023-01-12T11:14:03.927Z,97362.31
2023-01-12T11:16:32.709Z,97368.31
2023-01-12T11:19:33.114Z,97345.44
2023-01-12T11:22:07.736Z,97340.22
2023-01-12T11:24:49.332Z,97345.66
2023-01-12T11:27:34.603Z,97336.53
2023-01-12T11:30:18.653Z,97334.91
2023-01-12T11:32:46.027Z,97330.03
2023-01-12T11:35:19.540Z,97319.44
2023-01-12T11:37:47.512Z,97318.19
2023-01-12T11:40:40.210Z,97316.22
2023-01-12T11:43:32.329Z,97310.31
2023-01-12T11:46:11.084Z,97304.41
2023-01-12T11:49:01.561Z,97309.25
2023-01-12T11:51:29.830Z,97319.78
2023-01-12T11:53:57.994Z,97316.13
2023-01-12T11:57:06.237Z,97322.59
2023-01-12T11:59:43.533Z,97313.97
2023-01-12T12:02:37.687Z,97307.84
2023-01-12T12:05:23.775Z,97302.78
2023-01-12T12:08:14.907Z,97310.13
2023-01-12T12:10:54.429Z,97293.19
2023-01-12T12:13:43.870Z,97287.44
2023-01-12T12:16:14.287Z,97283.50
2023-01-12T12:18:47.690Z,97284.34
2023-01-12T12:21:33.700Z,97287.66
2023-01-12T12:24:04.287Z,97286.25
2023-01-12T12:26:40.439Z,97280.38
2023-01-12T12:29:29.694Z,97282.66
2023-01-12T12:32:23.806Z,97280.22
2023-01-12T12:35:36.980Z,97273.38
2023-01-12T12:38:36.905Z,97289.22
2023-01-12T12:42:00.819Z,97280.06
2023-01-12T12:45:19.387Z,97286.06
2023-01-12T12:47:59.567Z,97288.34
2023-01-12T12:50:32.436Z,97283.34
2023-01-12T12:53:12.742Z,97281.78
2023-01-12T12:55:41.266Z,97291.22
2023-01-12T12:58:20.971Z,97286.13
2023-01-12T13:00:50.558Z,97280.81
2023-01-12T13:04:08.253Z,97276.19
2023-01-12T13:06:48.555Z,97269.13
2023-01-12T13:09:16.037Z,97265.31
2023-01-12T13:11:59.208Z,97265.94
2023-01-12T13:14:30.153Z,97270.88
2023-01-12T13:17:20.384Z,97259.56
2023-01-12T13:19:49.033Z,97263.44
2023-01-12T13:22:50.952Z,97257.59
2023-01-12T13:25:22.254Z,97255.84
2023-01-12T13:28:11.101Z,97253.78
2023-01-12T13:30:50.950Z,97253.63
2023-01-12T13:33:28.223Z,97245.50
2023-01-12T13:36:10.281Z,97242.06
2023-01-12T13:38:54.305Z,97249.03
2023-01-12T13:41:47.341Z,97255.94
2023-01-12T13:44:33.805Z,97243.47
2023-01-12T13:47:10.347Z,97241.53
2023-01-12T13:49:46.920Z,97239.94
2023-01-12T13:52:35.892Z,97244.72
2023-01-12T13:55:18.120Z,97245.09
2023-01-12T13:57:56.986Z,97241.13
2023-01-12T14:00:25.457Z,97233.94
2023-01-12T14:02:54.003Z,97231.72
2023-01-12T14:05:50.533Z,97225.97
2023-01-12T14:08:51.180Z,97220.81
2023-01-12T14:11:37.077Z,97231.84
2023-01-12T14:14:51.198Z,97235.25
2023-01-12T14:17:45.474Z,97234.22
2023-01-12T14:20:19.005Z,97241.44
2023-01-12T14:22:46.954Z,97231.19
2023-01-12T14:25:20.603Z,97235.91
2023-01-12T14:27:56.148Z,97224.06
2023-01-12T14:30:27.239Z,97235.69
2023-01-12T14:32:55.423Z,97218.59
2023-01-12T14:35:25.476Z,97235.09
2023-01-12T14:38:01.269Z,97230.53
2023-01-12T14:40:33.790Z,97232.97
2023-01-12T14:43:21.008Z,97233.97
2023-01-12T14:46:17.454Z,97241.50
2023-01-12T14:49:17.452Z,97232.53
2023-01-12T14:51:55.340Z,97231.72
2023-01-12T14:54:28.452Z,97233.69
2023-01-12T14:57:03.863Z,97230.59
2023-01-12T14:59:38.663Z,97235.09
2023-01-12T15:02:15.102Z,97227.06
2023-01-12T15:05:10.686Z,97231.13
2023-01-12T15:07:58.396Z,97236.25
2023-01-12T15:10:28.312Z,97232.38
2023-01-12T15:12:57.744Z,97232.72
2023-01-12T15:15:50.655Z,97232.38
2023-01-12T15:18:36.979Z,97238.03
2023-01-12T15:21:23.180Z,97235.97
2023-01-12T15:24:09.503Z,97240.84
2023-01-12T15:26:37.055Z,97237.38
2023-01-12T15:29:05.312Z,97242.53
2023-01-12T15:31:36.515Z,97251.38
2023-01-12T15:34:06.023Z,97246.88
2023-01-12T15:36:33.518Z,97246.22
2023-01-12T15:39:01.082Z,97235.25
2023-01-12T15:41:49.680Z,97241.50
2023-01-12T15:44:22.095Z,97238.72
2023-01-12T15:46:49.577Z,97246.34
2023-01-12T15:49:17.305Z,97234.13
2023-01-12T15:51:50.929Z,97239.44
2023-01-12T15:54:20.347Z,97241.28
2023-01-12T15:56:48.638Z,97230.00
2023-01-12T15:59:16.790Z,97230.94
2023-01-12T16:01:48.583Z,97226.91
2023-01-12T16:04:42.126Z,97225.97
2023-01-12T16:07:10.020Z,97231.28
2023-01-12T16:09:37.546Z,97215.13
2023-01-12T16:12:05.364Z,97216.16
2023-01-12T16:14:32.895Z,97216.72
2023-01-12T16:17:00.428Z,97218.59
2023-01-12T16:19:28.425Z,97225.97
2023-01-12T16:21:56.454Z,97223.38
2023-01-12T16:24:26.846Z,97214.97
2023-01-12T16:26:54.611Z,97215.94
2023-01-12T16:29:23.846Z,97223.06
2023-01-12T16:31:51.551Z,97221.59
2023-01-12T16:34:22.864Z,97211.44
2023-01-12T16:36:50.719Z,97215.94
2023-01-12T16:39:18.828Z,97209.16
2023-01-12T16:41:46.401Z,97204.44
2023-01-12T16:44:13.993Z,97205.03
2023-01-12T16:46:41.833Z,97202.13
2023-01-12T16:49:09.306Z,97212.69
2023-01-12T16:51:37.220Z,97196.88
2023-01-12T16:54:04.915Z,97208.53
2023-01-12T16:56:32.495Z,97198.88
2023-01-12T16:59:00.041Z,97181.81
2023-01-12T17:01:27.792Z,97183.91
2023-01-12T17:03:58.472Z,97193.72
2023-01-12T17:06:28.130Z,97196.59
2023-01-12T17:08:56.142Z,97193.94
2023-01-12T17:11:24.487Z,97194.72
2023-01-12T17:13:55.177Z,97195.31
2023-01-12T17:16:24.740Z,97198.78
2023-01-12T17:18:52.763Z,97199.03
2023-01-12T17:21:21.520Z,97190.03
2023-01-12T17:23:49.543Z,97177.56
2023-01-12T17:26:19.000Z,97173.41
2023-01-12T17:28:47.476Z,97183.00
2023-01-12T17:31:18.289Z,97190.72
2023-01-12T17:33:46.708Z,97181.31
2023-01-12T17:36:15.067Z,97185.31
2023-01-12T17:38:42.636Z,97176.81
2023-01-12T17:41:34.320Z,97188.44
2023-01-12T17:44:03.931Z,97168.38
2023-01-12T17:46:32.633Z,97171.84
2023-01-12T17:49:02.269Z,97154.22
2023-01-12T17:51:30.031Z,97160.66
2023-01-12T17:53:58.862Z,97138.63
2023-01-12T17:56:28.459Z,97139.69
2023-01-12T17:58:56.432Z,97140.25
2023-01-12T18:01:26.379Z,97145.91
2023-01-12T18:03:53.988Z,97148.69
2023-01-12T18:06:29.421Z,97157.22
2023-01-12T18:08:59.753Z,97155.03
2023-01-12T18:11:28.919Z,97167.03
2023-01-12T18:13:56.840Z,97173.28
2023-01-12T18:16:24.681Z,97172.56
2023-01-12T18:18:53.107Z,97169.91
2023-01-12T18:21:23.456Z,97186.31
2023-01-12T18:23:52.132Z,97187.56
2023-01-12T18:26:23.716Z,97185.03
2023-01-12T18:28:55.010Z,97196.13
2023-01-12T18:31:25.189Z,97191.59
2023-01-12T18:34:04.382Z,97189.75
2023-01-12T18:36:40.168Z,97181.31
2023-01-12T18:39:12.191Z,97173.47
2023-01-12T18:41:58.553Z,97176.00
2023-01-12T18:44:26.621Z,97170.47
2023-01-12T18:47:14.541Z,97175.78
2023-01-12T18:49:47.964Z,97180.50
2023-01-12T18:52:36.059Z,97179.69
2023-01-12T18:55:05.554Z,97179.50
2023-01-12T18:57:33.131Z,97184.78
2023-01-12T19:00:15.770Z,97173.81
2023-01-12T19:02:44.586Z,97170.34
2023-01-12T19:05:24.000Z,97169.53
2023-01-12T19:07:51.749Z,97164.72
2023-01-12T19:10:19.287Z,97162.88
2023-01-12T19:12:46.797Z,97167.13
2023-01-12T19:15:33.004Z,97146.28
2023-01-12T19:18:01.076Z,97167.50
2023-01-12T19:20:32.110Z,97164.25
2023-01-12T19:23:18.301Z,97170.84
2023-01-12T19:26:04.688Z,97163.47
2023-01-12T19:28:36.040Z,97163.69
2023-01-12T19:31:07.036Z,97154.69
2023-01-12T19:33:34.567Z,97143.53
2023-01-12T19:36:07.967Z,97154.94
2023-01-12T19:38:38.708Z,97154.59
2023-01-12T19:41:13.383Z,97157.47
2023-01-12T19:43:45.315Z,97150.09
2023-01-12T19:46:15.885Z,97157.59
2023-01-12T19:48:44.661Z,97149.75
2023-01-12T19:51:12.413Z,97149.75
2023-01-12T19:53:40.514Z,97148.25
2023-01-12T19:56:13.189Z,97145.84
2023-01-12T19:58:40.865Z,97145.00
2023-01-12T20:01:08.855Z,97145.38
2023-01-12T20:03:36.474Z,97141.44
2023-01-12T20:06:07.896Z,97157.63
2023-01-12T20:08:35.381Z,97143.16
2023-01-12T20:11:05.348Z,97149.19
2023-01-12T20:13:34.622Z,97146.75
2023-01-12T20:16:07.410Z,97140.97
2023-01-12T20:18:34.984Z,97144.69
2023-01-12T20:21:06.877Z,97157.72
2023-01-12T20:23:34.860Z,97156.91
2023-01-12T20:26:06.219Z,97160.50
2023-01-12T20:28:34.587Z,97152.66
2023-01-12T20:31:02.182Z,97158.09
2023-01-12T20:33:29.597Z,97161.41
2023-01-12T20:35:58.461Z,97163.97
2023-01-12T20:38:25.981Z,97166.16
2023-01-12T20:40:53.550Z,97166.16
2023-01-12T20:43:21.012Z,97159.81
2023-01-12T20:45:48.433Z,97158.31
2023-01-12T20:48:16.334Z,97163.28
2023-01-12T20:50:45.617Z,97156.56
2023-01-12T20:53:14.129Z,97161.19
2023-01-12T20:55:48.029Z,97152.75
2023-01-12T20:58:15.714Z,97147.44
2023-01-12T21:00:43.679Z,97141.66
2023-01-12T21:03:11.382Z,97122.25
2023-01-12T21:05:43.848Z,97124.09
2023-01-12T21:08:11.995Z,97129.75
2023-01-12T21:10:41.058Z,97114.88
2023-01-12T21:13:08.567Z,97120.19
2023-01-12T21:15:36.700Z,97120.66
2023-01-12T21:18:04.472Z,97115.47
2023-01-12T21:20:31.984Z,97115.22
2023-01-12T21:23:00.258Z,97117.88
2023-01-12T21:25:28.867Z,97108.97
2023-01-12T21:27:56.435Z,97113.34
2023-01-12T21:30:23.961Z,97113.13
2023-01-12T21:32:52.962Z,97104.59
2023-01-12T21:35:20.513Z,97113.00
2023-01-12T21:37:48.024Z,97117.88
2023-01-12T21:40:16.820Z,97112.34
2023-01-12T21:43:02.829Z,97106.34
2023-01-12T21:45:30.406Z,97114.09
2023-01-12T21:47:57.865Z,97111.44
2023-01-12T21:50:25.609Z,97098.00
2023-01-12T21:52:53.125Z,97110.94
2023-01-12T21:55:20.938Z,97116.47
2023-01-12T21:57:48.519Z,97113.72
2023-01-12T22:00:16.798Z,97112.44
2023-01-12T22:02:44.489Z,97116.47
2023-01-12T22:05:13.761Z,97108.97
2023-01-12T22:07:41.408Z,97105.50
2023-01-12T22:10:22.246Z,97102.72
2023-01-12T22:12:53.198Z,97100.19
2023-01-12T22:15:21.959Z,97093.38
2023-01-12T22:17:51.378Z,97101.91
2023-01-12T22:20:19.340Z,97103.06
2023-01-12T22:22:46.896Z,97106.03
2023-01-12T22:25:16.130Z,97107.56
2023-01-12T22:27:44.521Z,97105.50
2023-01-12T22:30:17.976Z,97103.78
2023-01-12T22:32:45.693Z,97094.09
2023-01-12T22:35:13.778Z,97093.72
2023-01-12T22:37:41.740Z,97090.03
2023-01-12T22:40:11.205Z,97100.66
2023-01-12T22:42:58.831Z,97100.09
2023-01-12T22:45:26.397Z,97104.13
2023-01-12T22:47:55.659Z,97101.59
2023-01-12T22:50:24.524Z,97109.00
2023-01-12T22:52:54.812Z,97108.38
2023-01-12T22:55:24.337Z,97103.06
2023-01-12T22:57:52.509Z,97108.31
2023-01-12T23:00:21.209Z,97114.63
2023-01-12T23:03:01.933Z,97111.75
2023-01-12T23:05:33.367Z,97116.28
2023-01-12T23:08:01.472Z,97120.75
2023-01-12T23:10:29.689Z,97118.81
2023-01-12T23:13:16.200Z,97101.69
2023-01-12T23:15:56.638Z,97092.56
2023-01-12T23:18:30.014Z,97093.25
2023-01-12T23:21:03.704Z,97082.19
2023-01-12T23:23:31.764Z,97076.63
2023-01-12T23:26:04.041Z,97075.69
2023-01-12T23:28:36.986Z,97076.75
2023-01-12T23:31:11.215Z,97075.94
2023-01-12T23:33:39.983Z,97074.66
2023-01-12T23:36:10.836Z,97076.75
2023-01-12T23:38:38.323Z,97079.63
2023-01-12T23:41:20.452Z,97078.03
2023-01-12T23:43:49.319Z,97062.75
2023-01-12T23:46:20.531Z,97075.34
2023-01-12T23:48:48.415Z,97065.50
2023-01-12T23:51:16.324Z,97061.09
2023-01-12T23:53:45.325Z,97058.91
2023-01-12T23:56:15.076Z,97064.13
2023-01-12T23:58:43.513Z,97064.25
